sensor_id;sensor_type;location;lat;lon;timestamp;P1;durP1;ratioP1;P2;durP2;ratioP2
48685;SDS011;34485;51.536;3.816;2023-09-18T00:00:53;12.73;;;10.07;;
48685;SDS011;34485;51.536;3.816;2023-09-18T00:03:20;17.63;;;10.68;;
48685;SDS011;34485;51.536;3.816;2023-09-18T00:05:49;11.27;;;9.00;;
48685;SDS011;34485;51.536;3.816;2023-09-18T00:08:15;11.20;;;8.60;;
48685;SDS011;34485;51.536;3.816;2023-09-18T00:10:42;12.33;;;10.67;;
48685;SDS011;34485;51.536;3.816;2023-09-18T00:13:12;13.77;;;9.90;;
48685;SDS011;34485;51.536;3.816;2023-09-18T00:15:37;14.50;;;9.47;;
48685;SDS011;34485;51.536;3.816;2023-09-18T00:18:03;11.33;;;9.10;;
48685;SDS011;34485;51.536;3.816;2023-09-18T00:20:29;12.70;;;10.60;;
48685;SDS011;34485;51.536;3.816;2023-09-18T00:22:55;15.80;;;9.67;;
48685;SDS011;34485;51.536;3.816;2023-09-18T00:25:21;13.88;;;8.38;;
48685;SDS011;34485;51.536;3.816;2023-09-18T00:27:47;10.40;;;9.30;;
48685;SDS011;34485;51.536;3.816;2023-09-18T00:30:14;9.98;;;8.23;;
48685;SDS011;34485;51.536;3.816;2023-09-18T00:32:39;10.77;;;8.30;;
48685;SDS011;34485;51.536;3.816;2023-09-18T00:35:05;13.63;;;9.27;;
48685;SDS011;34485;51.536;3.816;2023-09-18T00:37:31;9.83;;;8.73;;
48685;SDS011;34485;51.536;3.816;2023-09-18T00:39:56;10.27;;;8.18;;
48685;SDS011;34485;51.536;3.816;2023-09-18T00:42:22;11.23;;;8.50;;
48685;SDS011;34485;51.536;3.816;2023-09-18T00:44:49;10.45;;;8.30;;
48685;SDS011;34485;51.536;3.816;2023-09-18T00:47:15;10.98;;;8.50;;
48685;SDS011;34485;51.536;3.816;2023-09-18T00:49:42;11.07;;;9.25;;
48685;SDS011;34485;51.536;3.816;2023-09-18T00:52:12;9.30;;;8.40;;
48685;SDS011;34485;51.536;3.816;2023-09-18T00:54:38;13.93;;;8.73;;
48685;SDS011;34485;51.536;3.816;2023-09-18T00:57:05;15.18;;;8.15;;
48685;SDS011;34485;51.536;3.816;2023-09-18T00:59:31;10.65;;;8.32;;
48685;SDS011;34485;51.536;3.816;2023-09-18T01:01:58;9.70;;;8.05;;
48685;SDS011;34485;51.536;3.816;2023-09-18T01:04:24;11.53;;;8.37;;
48685;SDS011;34485;51.536;3.816;2023-09-18T01:06:51;9.65;;;8.65;;
48685;SDS011;34485;51.536;3.816;2023-09-18T01:09:21;12.88;;;9.70;;
48685;SDS011;34485;51.536;3.816;2023-09-18T01:17:01;16.20;;;10.23;;
48685;SDS011;34485;51.536;3.816;2023-09-18T01:19:45;12.10;;;9.27;;
48685;SDS011;34485;51.536;3.816;2023-09-18T01:22:16;12.25;;;10.07;;
48685;SDS011;34485;51.536;3.816;2023-09-18T01:24:43;15.93;;;9.13;;
48685;SDS011;34485;51.536;3.816;2023-09-18T01:27:10;12.20;;;9.67;;
48685;SDS011;34485;51.536;3.816;2023-09-18T01:29:42;18.58;;;9.77;;
48685;SDS011;34485;51.536;3.816;2023-09-18T01:32:11;14.25;;;8.82;;
48685;SDS011;34485;51.536;3.816;2023-09-18T01:34:37;12.97;;;9.77;;
48685;SDS011;34485;51.536;3.816;2023-09-18T01:37:09;20.42;;;9.68;;
48685;SDS011;34485;51.536;3.816;2023-09-18T01:39:36;10.63;;;9.10;;
48685;SDS011;34485;51.536;3.816;2023-09-18T01:42:04;13.68;;;9.23;;
48685;SDS011;34485;51.536;3.816;2023-09-18T01:44:30;14.23;;;9.38;;
48685;SDS011;34485;51.536;3.816;2023-09-18T01:47:01;12.37;;;8.83;;
48685;SDS011;34485;51.536;3.816;2023-09-18T01:49:28;15.88;;;9.55;;
48685;SDS011;34485;51.536;3.816;2023-09-18T01:51:55;12.30;;;9.43;;
48685;SDS011;34485;51.536;3.816;2023-09-18T01:54:21;11.38;;;9.13;;
48685;SDS011;34485;51.536;3.816;2023-09-18T01:56:47;19.20;;;10.60;;
48685;SDS011;34485;51.536;3.816;2023-09-18T01:59:12;14.67;;;10.40;;
48685;SDS011;34485;51.536;3.816;2023-09-18T02:01:38;13.23;;;10.13;;
48685;SDS011;34485;51.536;3.816;2023-09-18T02:04:04;15.93;;;9.45;;
48685;SDS011;34485;51.536;3.816;2023-09-18T02:06:30;14.10;;;9.23;;
48685;SDS011;34485;51.536;3.816;2023-09-18T02:08:55;11.10;;;9.43;;
48685;SDS011;34485;51.536;3.816;2023-09-18T02:11:21;14.30;;;10.13;;
48685;SDS011;34485;51.536;3.816;2023-09-18T02:13:47;13.38;;;9.65;;
48685;SDS011;34485;51.536;3.816;2023-09-18T02:16:12;12.07;;;10.20;;
48685;SDS011;34485;51.536;3.816;2023-09-18T02:18:38;18.87;;;9.53;;
48685;SDS011;34485;51.536;3.816;2023-09-18T02:21:03;14.20;;;9.90;;
48685;SDS011;34485;51.536;3.816;2023-09-18T02:23:29;13.27;;;10.33;;
48685;SDS011;34485;51.536;3.816;2023-09-18T02:25:55;14.63;;;9.45;;
48685;SDS011;34485;51.536;3.816;2023-09-18T02:28:22;12.48;;;9.98;;
48685;SDS011;34485;51.536;3.816;2023-09-18T02:30:47;14.07;;;10.23;;
48685;SDS011;34485;51.536;3.816;2023-09-18T02:33:13;13.43;;;9.47;;
48685;SDS011;34485;51.536;3.816;2023-09-18T02:35:40;13.40;;;10.00;;
48685;SDS011;34485;51.536;3.816;2023-09-18T02:38:05;12.80;;;9.95;;
48685;SDS011;34485;51.536;3.816;2023-09-18T02:40:31;16.57;;;9.83;;
48685;SDS011;34485;51.536;3.816;2023-09-18T02:42:56;13.37;;;9.73;;
48685;SDS011;34485;51.536;3.816;2023-09-18T02:45:22;16.15;;;11.65;;
48685;SDS011;34485;51.536;3.816;2023-09-18T02:47:48;16.30;;;11.43;;
48685;SDS011;34485;51.536;3.816;2023-09-18T02:50:13;13.35;;;10.48;;
48685;SDS011;34485;51.536;3.816;2023-09-18T02:52:39;16.23;;;11.03;;
48685;SDS011;34485;51.536;3.816;2023-09-18T02:55:04;17.97;;;11.87;;
48685;SDS011;34485;51.536;3.816;2023-09-18T02:57:30;15.35;;;9.93;;
48685;SDS011;34485;51.536;3.816;2023-09-18T02:59:56;18.20;;;10.70;;
48685;SDS011;34485;51.536;3.816;2023-09-18T03:02:21;18.77;;;11.30;;
48685;SDS011;34485;51.536;3.816;2023-09-18T03:04:47;12.73;;;11.20;;
48685;SDS011;34485;51.536;3.816;2023-09-18T03:07:13;12.82;;;9.63;;
48685;SDS011;34485;51.536;3.816;2023-09-18T03:09:38;17.57;;;10.97;;
48685;SDS011;34485;51.536;3.816;2023-09-18T03:12:04;17.52;;;9.65;;
48685;SDS011;34485;51.536;3.816;2023-09-18T03:14:30;17.63;;;10.40;;
48685;SDS011;34485;51.536;3.816;2023-09-18T03:16:55;13.98;;;10.80;;
48685;SDS011;34485;51.536;3.816;2023-09-18T03:19:21;14.10;;;9.43;;
48685;SDS011;34485;51.536;3.816;2023-09-18T03:21:49;12.82;;;9.55;;
48685;SDS011;34485;51.536;3.816;2023-09-18T03:24:15;17.63;;;11.13;;
48685;SDS011;34485;51.536;3.816;2023-09-18T03:26:40;15.53;;;10.17;;
48685;SDS011;34485;51.536;3.816;2023-09-18T03:29:06;10.93;;;9.77;;
48685;SDS011;34485;51.536;3.816;2023-09-18T03:31:31;12.48;;;9.18;;
48685;SDS011;34485;51.536;3.816;2023-09-18T03:33:57;19.40;;;9.80;;
48685;SDS011;34485;51.536;3.816;2023-09-18T03:36:23;14.98;;;9.55;;
48685;SDS011;34485;51.536;3.816;2023-09-18T03:38:49;15.37;;;9.57;;
48685;SDS011;34485;51.536;3.816;2023-09-18T03:41:14;15.95;;;9.80;;
48685;SDS011;34485;51.536;3.816;2023-09-18T03:43:40;18.00;;;9.97;;
48685;SDS011;34485;51.536;3.816;2023-09-18T03:46:06;15.47;;;9.10;;
48685;SDS011;34485;51.536;3.816;2023-09-18T03:48:32;16.42;;;9.80;;
48685;SDS011;34485;51.536;3.816;2023-09-18T03:51:03;14.82;;;9.43;;
48685;SDS011;34485;51.536;3.816;2023-09-18T03:53:35;15.10;;;10.10;;
48685;SDS011;34485;51.536;3.816;2023-09-18T03:56:00;16.07;;;9.57;;
48685;SDS011;34485;51.536;3.816;2023-09-18T03:58:26;15.55;;;10.48;;
48685;SDS011;34485;51.536;3.816;2023-09-18T04:00:52;16.10;;;9.43;;
48685;SDS011;34485;51.536;3.816;2023-09-18T04:03:18;17.60;;;10.97;;
48685;SDS011;34485;51.536;3.816;2023-09-18T04:05:44;16.67;;;10.25;;
48685;SDS011;34485;51.536;3.816;2023-09-18T04:08:09;16.20;;;10.07;;
48685;SDS011;34485;51.536;3.816;2023-09-18T04:10:36;13.63;;;9.52;;
48685;SDS011;34485;51.536;3.816;2023-09-18T04:13:01;12.88;;;9.63;;
48685;SDS011;34485;51.536;3.816;2023-09-18T04:15:27;18.75;;;11.10;;
48685;SDS011;34485;51.536;3.816;2023-09-18T04:17:55;14.17;;;10.13;;
48685;SDS011;34485;51.536;3.816;2023-09-18T04:20:21;14.55;;;8.75;;
48685;SDS011;34485;51.536;3.816;2023-09-18T04:22:48;13.75;;;10.05;;
48685;SDS011;34485;51.536;3.816;2023-09-18T04:25:44;10.50;;;7.10;;
48685;SDS011;34485;51.536;3.816;2023-09-18T04:28:14;9.63;;;8.03;;
48685;SDS011;34485;51.536;3.816;2023-09-18T04:30:40;8.00;;;5.70;;
48685;SDS011;34485;51.536;3.816;2023-09-18T04:33:06;5.60;;;5.10;;
48685;SDS011;34485;51.536;3.816;2023-09-18T04:35:31;7.30;;;5.37;;
48685;SDS011;34485;51.536;3.816;2023-09-18T04:37:58;7.80;;;4.40;;
48685;SDS011;34485;51.536;3.816;2023-09-18T04:40:24;14.05;;;5.25;;
48685;SDS011;34485;51.536;3.816;2023-09-18T04:42:51;7.55;;;5.50;;
48685;SDS011;34485;51.536;3.816;2023-09-18T04:45:17;8.15;;;6.88;;
48685;SDS011;34485;51.536;3.816;2023-09-18T04:47:43;12.20;;;6.23;;
48685;SDS011;34485;51.536;3.816;2023-09-18T04:50:09;7.55;;;6.20;;
48685;SDS011;34485;51.536;3.816;2023-09-18T04:52:35;6.88;;;5.50;;
48685;SDS011;34485;51.536;3.816;2023-09-18T04:55:01;7.53;;;5.47;;
48685;SDS011;34485;51.536;3.816;2023-09-18T04:57:28;7.25;;;6.63;;
48685;SDS011;34485;51.536;3.816;2023-09-18T04:59:53;6.90;;;5.15;;
48685;SDS011;34485;51.536;3.816;2023-09-18T05:02:19;9.90;;;5.70;;
48685;SDS011;34485;51.536;3.816;2023-09-18T05:04:45;9.17;;;6.23;;
48685;SDS011;34485;51.536;3.816;2023-09-18T05:07:10;5.38;;;4.35;;
48685;SDS011;34485;51.536;3.816;2023-09-18T05:09:36;7.17;;;4.70;;
48685;SDS011;34485;51.536;3.816;2023-09-18T05:12:04;9.48;;;5.80;;
48685;SDS011;34485;51.536;3.816;2023-09-18T05:14:30;9.68;;;4.55;;
48685;SDS011;34485;51.536;3.816;2023-09-18T05:16:55;5.33;;;4.50;;
48685;SDS011;34485;51.536;3.816;2023-09-18T05:19:21;5.18;;;4.68;;
48685;SDS011;34485;51.536;3.816;2023-09-18T05:21:46;8.73;;;6.37;;
48685;SDS011;34485;51.536;3.816;2023-09-18T05:24:13;5.30;;;4.20;;
48685;SDS011;34485;51.536;3.816;2023-09-18T05:26:38;5.50;;;4.53;;
48685;SDS011;34485;51.536;3.816;2023-09-18T05:29:04;8.67;;;4.33;;
48685;SDS011;34485;51.536;3.816;2023-09-18T05:31:29;5.07;;;4.60;;
48685;SDS011;34485;51.536;3.816;2023-09-18T05:33:55;6.83;;;4.63;;
48685;SDS011;34485;51.536;3.816;2023-09-18T05:36:21;6.47;;;3.90;;
48685;SDS011;34485;51.536;3.816;2023-09-18T05:38:46;7.10;;;4.33;;
48685;SDS011;34485;51.536;3.816;2023-09-18T05:41:12;4.82;;;4.43;;
48685;SDS011;34485;51.536;3.816;2023-09-18T05:43:38;5.33;;;4.53;;
48685;SDS011;34485;51.536;3.816;2023-09-18T05:46:03;5.87;;;4.13;;
48685;SDS011;34485;51.536;3.816;2023-09-18T05:48:29;5.70;;;4.53;;
48685;SDS011;34485;51.536;3.816;2023-09-18T05:50:54;4.87;;;4.37;;
48685;SDS011;34485;51.536;3.816;2023-09-18T05:53:20;5.63;;;4.47;;
48685;SDS011;34485;51.536;3.816;2023-09-18T05:55:46;4.40;;;3.80;;
48685;SDS011;34485;51.536;3.816;2023-09-18T05:58:12;9.50;;;4.78;;
48685;SDS011;34485;51.536;3.816;2023-09-18T06:00:39;6.53;;;3.30;;
48685;SDS011;34485;51.536;3.816;2023-09-18T06:03:05;4.85;;;3.60;;
48685;SDS011;34485;51.536;3.816;2023-09-18T06:05:31;3.63;;;3.23;;
48685;SDS011;34485;51.536;3.816;2023-09-18T06:07:59;5.07;;;3.70;;
48685;SDS011;34485;51.536;3.816;2023-09-18T06:10:24;3.50;;;3.10;;
48685;SDS011;34485;51.536;3.816;2023-09-18T06:12:50;4.68;;;4.22;;
48685;SDS011;34485;51.536;3.816;2023-09-18T06:15:16;4.33;;;4.03;;
48685;SDS011;34485;51.536;3.816;2023-09-18T06:17:42;4.43;;;3.40;;
48685;SDS011;34485;51.536;3.816;2023-09-18T06:20:09;7.30;;;3.92;;
48685;SDS011;34485;51.536;3.816;2023-09-18T06:22:37;6.72;;;3.53;;
48685;SDS011;34485;51.536;3.816;2023-09-18T06:25:05;8.20;;;3.58;;
48685;SDS011;34485;51.536;3.816;2023-09-18T06:27:34;4.65;;;4.05;;
48685;SDS011;34485;51.536;3.816;2023-09-18T06:30:00;4.73;;;3.53;;
48685;SDS011;34485;51.536;3.816;2023-09-18T06:32:26;5.00;;;4.53;;
48685;SDS011;34485;51.536;3.816;2023-09-18T06:34:51;6.20;;;3.20;;
48685;SDS011;34485;51.536;3.816;2023-09-18T06:37:17;5.70;;;3.85;;
48685;SDS011;34485;51.536;3.816;2023-09-18T06:39:43;7.53;;;3.40;;
48685;SDS011;34485;51.536;3.816;2023-09-18T06:42:09;5.57;;;4.13;;
48685;SDS011;34485;51.536;3.816;2023-09-18T06:44:34;4.40;;;4.00;;
48685;SDS011;34485;51.536;3.816;2023-09-18T06:47:00;9.13;;;3.78;;
48685;SDS011;34485;51.536;3.816;2023-09-18T06:49:25;3.90;;;3.57;;
48685;SDS011;34485;51.536;3.816;2023-09-18T06:51:52;5.55;;;3.33;;
48685;SDS011;34485;51.536;3.816;2023-09-18T06:54:18;4.23;;;3.63;;
48685;SDS011;34485;51.536;3.816;2023-09-18T06:56:43;5.32;;;3.55;;
48685;SDS011;34485;51.536;3.816;2023-09-18T06:59:09;3.70;;;3.40;;
48685;SDS011;34485;51.536;3.816;2023-09-18T07:01:36;5.00;;;4.10;;
48685;SDS011;34485;51.536;3.816;2023-09-18T07:04:02;5.15;;;3.92;;
48685;SDS011;34485;51.536;3.816;2023-09-18T07:06:29;4.60;;;4.18;;
48685;SDS011;34485;51.536;3.816;2023-09-18T07:08:55;3.70;;;3.37;;
48685;SDS011;34485;51.536;3.816;2023-09-18T07:11:21;4.15;;;3.40;;
48685;SDS011;34485;51.536;3.816;2023-09-18T07:13:47;7.25;;;4.30;;
48685;SDS011;34485;51.536;3.816;2023-09-18T07:16:12;4.20;;;3.27;;
48685;SDS011;34485;51.536;3.816;2023-09-18T07:18:38;4.07;;;3.73;;
48685;SDS011;34485;51.536;3.816;2023-09-18T07:21:04;8.67;;;4.20;;
48685;SDS011;34485;51.536;3.816;2023-09-18T07:23:30;7.00;;;4.38;;
48685;SDS011;34485;51.536;3.816;2023-09-18T07:25:55;6.10;;;2.83;;
48685;SDS011;34485;51.536;3.816;2023-09-18T07:28:23;3.47;;;3.10;;
48685;SDS011;34485;51.536;3.816;2023-09-18T07:30:49;4.68;;;3.28;;
48685;SDS011;34485;51.536;3.816;2023-09-18T07:33:15;3.37;;;3.07;;
48685;SDS011;34485;51.536;3.816;2023-09-18T07:35:44;3.88;;;2.90;;
48685;SDS011;34485;51.536;3.816;2023-09-18T07:38:12;6.88;;;3.10;;
48685;SDS011;34485;51.536;3.816;2023-09-18T07:40:37;2.83;;;2.63;;
48685;SDS011;34485;51.536;3.816;2023-09-18T07:43:03;4.60;;;2.87;;
48685;SDS011;34485;51.536;3.816;2023-09-18T07:45:28;5.38;;;2.55;;
48685;SDS011;34485;51.536;3.816;2023-09-18T07:47:54;2.87;;;2.63;;
48685;SDS011;34485;51.536;3.816;2023-09-18T07:50:20;6.20;;;3.55;;
48685;SDS011;34485;51.536;3.816;2023-09-18T07:52:45;3.33;;;3.03;;
48685;SDS011;34485;51.536;3.816;2023-09-18T07:55:11;11.30;;;3.28;;
48685;SDS011;34485;51.536;3.816;2023-09-18T07:57:37;3.87;;;3.10;;
48685;SDS011;34485;51.536;3.816;2023-09-18T08:00:03;3.85;;;2.50;;
48685;SDS011;34485;51.536;3.816;2023-09-18T08:02:37;5.05;;;2.50;;
48685;SDS011;34485;51.536;3.816;2023-09-18T08:05:07;2.40;;;2.20;;
48685;SDS011;34485;51.536;3.816;2023-09-18T08:07:33;2.90;;;2.65;;
48685;SDS011;34485;51.536;3.816;2023-09-18T08:10:00;7.15;;;3.75;;
48685;SDS011;34485;51.536;3.816;2023-09-18T08:12:29;5.50;;;3.55;;
48685;SDS011;34485;51.536;3.816;2023-09-18T08:14:55;4.33;;;3.43;;
48685;SDS011;34485;51.536;3.816;2023-09-18T08:17:23;6.05;;;3.95;;
48685;SDS011;34485;51.536;3.816;2023-09-18T08:19:53;3.35;;;3.05;;
48685;SDS011;34485;51.536;3.816;2023-09-18T08:22:19;3.63;;;3.42;;
48685;SDS011;34485;51.536;3.816;2023-09-18T08:24:46;4.60;;;4.20;;
48685;SDS011;34485;51.536;3.816;2023-09-18T08:27:13;5.22;;;4.70;;
48685;SDS011;34485;51.536;3.816;2023-09-18T08:29:43;4.15;;;3.95;;
48685;SDS011;34485;51.536;3.816;2023-09-18T08:32:09;4.15;;;3.75;;
48685;SDS011;34485;51.536;3.816;2023-09-18T08:34:35;3.88;;;3.65;;
48685;SDS011;34485;51.536;3.816;2023-09-18T08:37:01;8.67;;;3.00;;
48685;SDS011;34485;51.536;3.816;2023-09-18T08:39:27;4.97;;;2.63;;
48685;SDS011;34485;51.536;3.816;2023-09-18T08:41:55;3.20;;;2.87;;
48685;SDS011;34485;51.536;3.816;2023-09-18T08:44:24;4.05;;;2.97;;
48685;SDS011;34485;51.536;3.816;2023-09-18T08:46:52;4.25;;;2.83;;
48685;SDS011;34485;51.536;3.816;2023-09-18T08:49:25;4.40;;;2.85;;
48685;SDS011;34485;51.536;3.816;2023-09-18T08:51:51;3.37;;;2.80;;
48685;SDS011;34485;51.536;3.816;2023-09-18T08:54:19;3.78;;;2.75;;
48685;SDS011;34485;51.536;3.816;2023-09-18T08:56:50;5.57;;;3.28;;
48685;SDS011;34485;51.536;3.816;2023-09-18T08:59:19;5.63;;;2.83;;
48685;SDS011;34485;51.536;3.816;2023-09-18T09:01:47;3.90;;;2.92;;
48685;SDS011;34485;51.536;3.816;2023-09-18T09:04:12;4.87;;;3.10;;
48685;SDS011;34485;51.536;3.816;2023-09-18T09:06:38;3.08;;;2.75;;
48685;SDS011;34485;51.536;3.816;2023-09-18T09:09:04;5.20;;;3.20;;
48685;SDS011;34485;51.536;3.816;2023-09-18T09:11:30;4.18;;;2.90;;
48685;SDS011;34485;51.536;3.816;2023-09-18T09:14:11;5.37;;;2.73;;
48685;SDS011;34485;51.536;3.816;2023-09-18T09:16:46;3.78;;;2.67;;
48685;SDS011;34485;51.536;3.816;2023-09-18T09:19:15;6.22;;;3.05;;
48685;SDS011;34485;51.536;3.816;2023-09-18T09:21:55;3.67;;;2.70;;
48685;SDS011;34485;51.536;3.816;2023-09-18T09:24:36;4.53;;;2.80;;
48685;SDS011;34485;51.536;3.816;2023-09-18T09:27:03;5.10;;;2.67;;
48685;SDS011;34485;51.536;3.816;2023-09-18T09:29:29;3.33;;;2.70;;
48685;SDS011;34485;51.536;3.816;2023-09-18T09:31:55;5.60;;;2.60;;
48685;SDS011;34485;51.536;3.816;2023-09-18T09:34:24;4.77;;;2.63;;
48685;SDS011;34485;51.536;3.816;2023-09-18T09:36:54;3.70;;;2.92;;
48685;SDS011;34485;51.536;3.816;2023-09-18T09:39:21;5.50;;;3.10;;
48685;SDS011;34485;51.536;3.816;2023-09-18T09:41:50;6.65;;;2.92;;
48685;SDS011;34485;51.536;3.816;2023-09-18T09:44:18;8.10;;;2.70;;
48685;SDS011;34485;51.536;3.816;2023-09-18T09:46:49;5.23;;;3.50;;
48685;SDS011;34485;51.536;3.816;2023-09-18T09:49:16;2.60;;;2.40;;
48685;SDS011;34485;51.536;3.816;2023-09-18T09:51:44;2.95;;;2.75;;
48685;SDS011;34485;51.536;3.816;2023-09-18T09:54:10;4.37;;;2.87;;
48685;SDS011;34485;51.536;3.816;2023-09-18T09:56:44;3.30;;;3.00;;
48685;SDS011;34485;51.536;3.816;2023-09-18T09:59:11;6.43;;;3.20;;
48685;SDS011;34485;51.536;3.816;2023-09-18T10:01:38;5.03;;;3.65;;
48685;SDS011;34485;51.536;3.816;2023-09-18T10:04:07;4.00;;;2.70;;
48685;SDS011;34485;51.536;3.816;2023-09-18T10:06:35;3.60;;;2.77;;
48685;SDS011;34485;51.536;3.816;2023-09-18T10:09:02;3.63;;;2.60;;
48685;SDS011;34485;51.536;3.816;2023-09-18T10:11:31;3.33;;;2.95;;
48685;SDS011;34485;51.536;3.816;2023-09-18T10:14:04;3.15;;;2.65;;
48685;SDS011;34485;51.536;3.816;2023-09-18T10:16:36;4.05;;;2.97;;
48685;SDS011;34485;51.536;3.816;2023-09-18T10:24:41;3.40;;;3.13;;
48685;SDS011;34485;51.536;3.816;2023-09-18T10:27:11;3.60;;;3.10;;
48685;SDS011;34485;51.536;3.816;2023-09-18T10:29:38;4.78;;;2.53;;
48685;SDS011;34485;51.536;3.816;2023-09-18T10:32:07;3.47;;;2.57;;
48685;SDS011;34485;51.536;3.816;2023-09-18T10:34:33;3.97;;;2.50;;
48685;SDS011;34485;51.536;3.816;2023-09-18T10:36:59;5.15;;;3.42;;
48685;SDS011;34485;51.536;3.816;2023-09-18T10:39:26;3.80;;;2.85;;
48685;SDS011;34485;51.536;3.816;2023-09-18T10:41:53;3.38;;;3.08;;
48685;SDS011;34485;51.536;3.816;2023-09-18T10:44:20;2.63;;;2.40;;
48685;SDS011;34485;51.536;3.816;2023-09-18T10:46:48;2.40;;;2.20;;
48685;SDS011;34485;51.536;3.816;2023-09-18T10:49:15;4.63;;;2.72;;
48685;SDS011;34485;51.536;3.816;2023-09-18T10:51:41;3.30;;;2.58;;
48685;SDS011;34485;51.536;3.816;2023-09-18T10:54:08;6.25;;;3.03;;
48685;SDS011;34485;51.536;3.816;2023-09-18T10:56:35;4.90;;;2.90;;
48685;SDS011;34485;51.536;3.816;2023-09-18T10:59:02;5.97;;;3.05;;
48685;SDS011;34485;51.536;3.816;2023-09-18T11:01:29;4.28;;;2.97;;
48685;SDS011;34485;51.536;3.816;2023-09-18T11:04:01;3.70;;;2.53;;
48685;SDS011;34485;51.536;3.816;2023-09-18T11:07:20;7.63;;;2.83;;
48685;SDS011;34485;51.536;3.816;2023-09-18T11:09:21;3.53;;;2.85;;
48685;SDS011;34485;51.536;3.816;2023-09-18T11:22:55;3.38;;;2.83;;
48685;SDS011;34485;51.536;3.816;2023-09-18T11:25:38;4.50;;;3.13;;
48685;SDS011;34485;51.536;3.816;2023-09-18T11:28:07;5.10;;;2.97;;
48685;SDS011;34485;51.536;3.816;2023-09-18T11:30:37;5.38;;;3.45;;
48685;SDS011;34485;51.536;3.816;2023-09-18T11:33:04;4.53;;;3.13;;
48685;SDS011;34485;51.536;3.816;2023-09-18T11:35:32;3.08;;;2.80;;
48685;SDS011;34485;51.536;3.816;2023-09-18T11:38:08;3.22;;;2.92;;
48685;SDS011;34485;51.536;3.816;2023-09-18T11:40:36;4.38;;;2.92;;
48685;SDS011;34485;51.536;3.816;2023-09-18T11:43:19;7.35;;;2.83;;
48685;SDS011;34485;51.536;3.816;2023-09-18T11:45:49;4.23;;;2.83;;
48685;SDS011;34485;51.536;3.816;2023-09-18T11:48:16;4.90;;;2.95;;
48685;SDS011;34485;51.536;3.816;2023-09-18T11:50:43;3.97;;;3.17;;
48685;SDS011;34485;51.536;3.816;2023-09-18T11:53:09;5.25;;;3.67;;
48685;SDS011;34485;51.536;3.816;2023-09-18T11:55:38;2.90;;;2.70;;
48685;SDS011;34485;51.536;3.816;2023-09-18T11:58:05;5.07;;;2.93;;
48685;SDS011;34485;51.536;3.816;2023-09-18T12:00:31;3.08;;;2.65;;
48685;SDS011;34485;51.536;3.816;2023-09-18T12:02:57;9.60;;;3.38;;
48685;SDS011;34485;51.536;3.816;2023-09-18T12:05:23;2.88;;;2.65;;
48685;SDS011;34485;51.536;3.816;2023-09-18T12:07:51;4.90;;;2.70;;
48685;SDS011;34485;51.536;3.816;2023-09-18T12:10:17;3.55;;;2.65;;
48685;SDS011;34485;51.536;3.816;2023-09-18T12:12:46;6.07;;;3.03;;
48685;SDS011;34485;51.536;3.816;2023-09-18T12:15:12;3.33;;;2.92;;
48685;SDS011;34485;51.536;3.816;2023-09-18T12:17:40;2.80;;;2.60;;
48685;SDS011;34485;51.536;3.816;2023-09-18T12:20:06;2.70;;;2.50;;
48685;SDS011;34485;51.536;3.816;2023-09-18T12:22:39;3.60;;;2.63;;
48685;SDS011;34485;51.536;3.816;2023-09-18T12:25:11;4.30;;;2.53;;
48685;SDS011;34485;51.536;3.816;2023-09-18T12:27:39;2.90;;;2.20;;
48685;SDS011;34485;51.536;3.816;2023-09-18T12:30:05;5.20;;;2.40;;
48685;SDS011;34485;51.536;3.816;2023-09-18T12:32:32;3.25;;;2.70;;
48685;SDS011;34485;51.536;3.816;2023-09-18T12:35:00;3.38;;;2.60;;
48685;SDS011;34485;51.536;3.816;2023-09-18T12:37:26;2.97;;;2.73;;
48685;SDS011;34485;51.536;3.816;2023-09-18T12:39:52;4.50;;;2.20;;
48685;SDS011;34485;51.536;3.816;2023-09-18T12:42:18;11.10;;;2.33;;
48685;SDS011;34485;51.536;3.816;2023-09-18T12:44:48;2.75;;;2.55;;
48685;SDS011;34485;51.536;3.816;2023-09-18T12:47:14;3.77;;;3.30;;
48685;SDS011;34485;51.536;3.816;2023-09-18T12:49:40;3.13;;;2.50;;
48685;SDS011;34485;51.536;3.816;2023-09-18T12:52:06;3.70;;;2.83;;
48685;SDS011;34485;51.536;3.816;2023-09-18T12:57:11;5.18;;;2.50;;
48685;SDS011;34485;51.536;3.816;2023-09-18T12:59:40;2.72;;;2.40;;
48685;SDS011;34485;51.536;3.816;2023-09-18T13:02:06;5.27;;;2.53;;
48685;SDS011;34485;51.536;3.816;2023-09-18T13:04:35;2.65;;;2.22;;
48685;SDS011;34485;51.536;3.816;2023-09-18T13:07:12;4.88;;;2.67;;
48685;SDS011;34485;51.536;3.816;2023-09-18T13:09:39;3.57;;;2.27;;
48685;SDS011;34485;51.536;3.816;2023-09-18T13:12:05;2.78;;;2.53;;
48685;SDS011;34485;51.536;3.816;2023-09-18T13:17:43;2.80;;;2.60;;
48685;SDS011;34485;51.536;3.816;2023-09-18T13:22:40;3.23;;;2.40;;
48685;SDS011;34485;51.536;3.816;2023-09-18T13:25:09;4.25;;;2.70;;
48685;SDS011;34485;51.536;3.816;2023-09-18T13:27:36;15.13;;;4.97;;
48685;SDS011;34485;51.536;3.816;2023-09-18T13:30:03;4.60;;;1.75;;
48685;SDS011;34485;51.536;3.816;2023-09-18T13:32:35;9.13;;;2.30;;
48685;SDS011;34485;51.536;3.816;2023-09-18T13:35:02;7.97;;;2.67;;
48685;SDS011;34485;51.536;3.816;2023-09-18T13:37:30;11.55;;;3.78;;
48685;SDS011;34485;51.536;3.816;2023-09-18T13:39:56;8.20;;;3.67;;
48685;SDS011;34485;51.536;3.816;2023-09-18T13:42:22;11.60;;;2.63;;
48685;SDS011;34485;51.536;3.816;2023-09-18T13:44:47;7.88;;;2.80;;
48685;SDS011;34485;51.536;3.816;2023-09-18T13:47:14;12.25;;;3.28;;
48685;SDS011;34485;51.536;3.816;2023-09-18T13:49:40;13.93;;;3.73;;
48685;SDS011;34485;51.536;3.816;2023-09-18T13:52:06;11.63;;;3.05;;
48685;SDS011;34485;51.536;3.816;2023-09-18T13:54:32;8.98;;;1.73;;
48685;SDS011;34485;51.536;3.816;2023-09-18T13:56:57;4.93;;;2.57;;
48685;SDS011;34485;51.536;3.816;2023-09-18T13:59:23;4.85;;;2.40;;
48685;SDS011;34485;51.536;3.816;2023-09-18T14:01:48;3.40;;;2.47;;
48685;SDS011;34485;51.536;3.816;2023-09-18T14:04:14;2.40;;;2.13;;
48685;SDS011;34485;51.536;3.816;2023-09-18T14:06:40;3.83;;;2.58;;
48685;SDS011;34485;51.536;3.816;2023-09-18T14:09:07;4.18;;;3.70;;
48685;SDS011;34485;51.536;3.816;2023-09-18T14:11:35;2.78;;;2.33;;
48685;SDS011;34485;51.536;3.816;2023-09-18T14:14:03;2.63;;;2.30;;
48685;SDS011;34485;51.536;3.816;2023-09-18T14:16:28;3.53;;;2.03;;
48685;SDS011;34485;51.536;3.816;2023-09-18T14:18:58;3.35;;;2.97;;
48685;SDS011;34485;51.536;3.816;2023-09-18T14:21:24;4.60;;;2.65;;
48685;SDS011;34485;51.536;3.816;2023-09-18T14:23:49;2.83;;;2.63;;
48685;SDS011;34485;51.536;3.816;2023-09-18T14:26:15;8.15;;;2.33;;
48685;SDS011;34485;51.536;3.816;2023-09-18T14:28:41;2.97;;;2.67;;
48685;SDS011;34485;51.536;3.816;2023-09-18T14:31:09;4.93;;;2.93;;
48685;SDS011;34485;51.536;3.816;2023-09-18T14:33:35;3.00;;;1.80;;
48685;SDS011;34485;51.536;3.816;2023-09-18T14:36:01;3.33;;;2.70;;
48685;SDS011;34485;51.536;3.816;2023-09-18T14:38:28;2.97;;;2.67;;
48685;SDS011;34485;51.536;3.816;2023-09-18T14:40:54;3.10;;;2.53;;
48685;SDS011;34485;51.536;3.816;2023-09-18T14:43:25;7.13;;;2.53;;
48685;SDS011;34485;51.536;3.816;2023-09-18T14:45:52;1.95;;;1.80;;
48685;SDS011;34485;51.536;3.816;2023-09-18T14:48:18;3.85;;;2.30;;
48685;SDS011;34485;51.536;3.816;2023-09-18T14:50:43;5.63;;;2.47;;
48685;SDS011;34485;51.536;3.816;2023-09-18T14:53:09;2.42;;;2.17;;
48685;SDS011;34485;51.536;3.816;2023-09-18T14:55:35;7.07;;;2.87;;
48685;SDS011;34485;51.536;3.816;2023-09-18T14:58:01;4.40;;;2.47;;
48685;SDS011;34485;51.536;3.816;2023-09-18T15:00:26;4.63;;;2.38;;
48685;SDS011;34485;51.536;3.816;2023-09-18T15:02:52;7.30;;;2.80;;
48685;SDS011;34485;51.536;3.816;2023-09-18T15:05:17;5.83;;;2.50;;
48685;SDS011;34485;51.536;3.816;2023-09-18T15:07:43;11.05;;;3.03;;
48685;SDS011;34485;51.536;3.816;2023-09-18T15:10:09;3.73;;;2.57;;
48685;SDS011;34485;51.536;3.816;2023-09-18T15:12:35;3.05;;;2.03;;